createdAt,value
2022-10-23T00:02:02.479Z,98362.03
2022-10-23T00:05:06.188Z,98355.03
2022-10-23T00:08:10.705Z,98329.16
2022-10-23T00:11:17.077Z,98360.00
2022-10-23T00:14:23.478Z,98356.16
2022-10-23T00:17:26.585Z,98349.25
2022-10-23T00:20:29.992Z,98350.22
2022-10-23T00:23:34.530Z,98309.22
2022-10-23T00:26:40.450Z,98352.50
2022-10-23T00:29:45.207Z,98357.84
2022-10-23T00:32:48.480Z,98354.41
2022-10-23T00:35:51.580Z,98347.69
2022-10-23T00:38:57.030Z,98318.94
2022-10-23T00:42:00.226Z,98337.34
2022-10-23T00:45:21.355Z,98327.13
2022-10-23T00:48:26.507Z,98338.31
2022-10-23T00:51:37.053Z,98315.44
2022-10-23T00:54:43.761Z,98257.78
2022-10-23T00:57:49.727Z,98329.75
2022-10-23T01:00:54.815Z,98320.88
2022-10-23T01:03:58.384Z,98313.63
2022-10-23T01:07:08.200Z,98321.81
2022-10-23T01:10:17.143Z,98318.19
2022-10-23T01:13:27.799Z,98311.69
2022-10-23T01:16:38.902Z,98317.97
2022-10-23T01:19:55.508Z,98313.28
2022-10-23T01:23:24.334Z,98303.47
2022-10-23T01:26:56.274Z,98299.13
2022-10-23T01:30:20.885Z,98299.53
2022-10-23T01:33:30.251Z,98301.28
2022-10-23T01:36:34.466Z,98299.50
2022-10-23T01:39:41.696Z,98267.50
2022-10-23T01:42:50.951Z,98299.50
2022-10-23T01:46:03.665Z,98291.81
2022-10-23T01:49:10.440Z,98281.66
2022-10-23T01:52:18.568Z,98280.47
2022-10-23T01:55:25.734Z,98278.25
2022-10-23T01:58:32.425Z,98243.56
2022-10-23T02:01:41.052Z,98271.25
2022-10-23T02:04:50.631Z,98263.66
2022-10-23T02:07:55.060Z,98262.13
2022-10-23T02:11:05.599Z,98257.00
2022-10-23T02:14:15.291Z,98259.44
2022-10-23T02:17:30.889Z,98256.59
2022-10-23T02:20:40.658Z,98258.16
2022-10-23T02:23:53.793Z,98257.41
2022-10-23T02:27:03.748Z,98252.34
2022-10-23T02:30:08.920Z,98255.84
2022-10-23T02:33:15.179Z,98257.06
2022-10-23T02:36:20.015Z,98231.50
2022-10-23T02:39:27.056Z,98242.00
2022-10-23T02:42:35.189Z,98248.63
2022-10-23T02:45:45.607Z,98243.91
2022-10-23T02:48:58.725Z,98220.75
2022-10-23T02:52:10.403Z,98256.34
2022-10-23T02:55:24.136Z,98262.34
2022-10-23T02:58:34.211Z,98261.00
2022-10-23T03:01:47.455Z,98263.34
2022-10-23T03:04:53.978Z,98260.25
2022-10-23T03:07:57.707Z,98263.97
2022-10-23T03:11:00.863Z,98261.22
2022-10-23T03:14:05.137Z,98255.91
2022-10-23T03:17:08.351Z,98249.34
2022-10-23T03:20:13.397Z,98253.38
2022-10-23T03:23:18.528Z,98250.56
2022-10-23T03:26:21.786Z,98242.97
2022-10-23T03:29:24.962Z,98250.28
2022-10-23T03:34:24.622Z,98227.75
2022-10-23T03:37:29.672Z,98236.25
2022-10-23T03:40:33.188Z,98235.41
2022-10-23T03:43:36.624Z,98230.78
2022-10-23T03:46:40.693Z,98221.47
2022-10-23T03:49:45.328Z,98228.56
2022-10-23T03:52:48.444Z,98206.75
2022-10-23T03:55:51.609Z,98237.22
2022-10-23T03:58:54.987Z,98236.25
2022-10-23T04:02:00.855Z,98221.78
2022-10-23T04:05:06.139Z,98229.31
2022-10-23T04:08:10.252Z,98239.44
2022-10-23T04:11:14.082Z,98243.75
2022-10-23T04:14:23.142Z,98234.56
2022-10-23T04:20:36.459Z,98227.97
2022-10-23T04:23:39.791Z,98211.31
2022-10-23T04:26:48.858Z,98228.97
2022-10-23T04:29:54.323Z,98225.81
2022-10-23T04:33:00.012Z,98239.00
2022-10-23T04:36:04.673Z,98227.19
2022-10-23T04:39:09.456Z,98222.72
2022-10-23T04:42:13.228Z,98218.94
2022-10-23T04:45:16.703Z,98218.88
2022-10-23T04:48:19.972Z,98219.72
2022-10-23T04:51:44.460Z,98206.22
2022-10-23T04:55:19.689Z,98221.16
2022-10-23T04:58:41.417Z,98221.81
2022-10-23T05:01:44.851Z,98214.34
2022-10-23T05:04:50.013Z,98221.38
2022-10-23T05:08:15.671Z,98219.88
2022-10-23T05:11:40.268Z,98228.41
2022-10-23T05:14:45.681Z,98222.50
2022-10-23T05:17:52.607Z,98219.22
2022-10-23T05:21:00.339Z,98210.72
2022-10-23T05:24:05.304Z,98231.41
2022-10-23T05:27:08.496Z,98223.69
2022-10-23T05:30:15.075Z,98215.66
2022-10-23T05:33:18.919Z,98224.31
2022-10-23T05:36:25.850Z,98227.81
2022-10-23T05:39:35.317Z,98224.44
2022-10-23T05:42:42.938Z,98213.69
2022-10-23T05:46:08.542Z,98224.56
2022-10-23T05:49:37.863Z,98214.03
2022-10-23T05:53:07.193Z,98201.00
2022-10-23T05:56:26.888Z,98213.19
2022-10-23T05:59:37.312Z,98208.47
2022-10-23T06:03:00.522Z,98181.06
2022-10-23T06:06:13.723Z,98217.13
2022-10-23T06:09:22.784Z,98213.63
2022-10-23T06:12:32.418Z,98212.41
2022-10-23T06:15:35.887Z,98217.03
2022-10-23T06:18:50.281Z,98185.72
2022-10-23T06:21:54.769Z,98212.34
2022-10-23T06:25:07.649Z,98215.38
2022-10-23T06:28:14.862Z,98177.97
2022-10-23T06:31:23.613Z,98215.94
2022-10-23T06:34:27.710Z,98222.34
2022-10-23T06:37:30.948Z,98223.25
2022-10-23T06:40:57.794Z,98229.06
2022-10-23T06:44:10.229Z,98218.00
2022-10-23T06:47:25.300Z,98225.63
2022-10-23T06:50:48.391Z,98227.22
2022-10-23T06:53:56.366Z,98235.31
2022-10-23T06:57:25.385Z,98227.31
2022-10-23T07:00:30.110Z,98220.22
2022-10-23T07:03:34.814Z,98201.25
2022-10-23T07:06:41.222Z,98197.56
2022-10-23T07:09:45.005Z,98212.19
2022-10-23T07:12:51.183Z,98201.31
2022-10-23T07:16:20.957Z,98210.50
2022-10-23T07:19:24.620Z,98204.84
2022-10-23T07:22:32.759Z,98200.97
2022-10-23T07:25:48.709Z,98190.75
2022-10-23T07:28:57.637Z,98194.91
2022-10-23T07:32:04.451Z,98183.34
2022-10-23T07:35:08.977Z,98180.34
2022-10-23T07:38:15.023Z,98180.78
2022-10-23T07:41:22.342Z,98172.41
2022-10-23T07:44:27.741Z,98176.19
2022-10-23T07:47:33.500Z,98182.28
2022-10-23T07:50:38.994Z,98187.22
2022-10-23T07:53:42.759Z,98178.47
2022-10-23T07:56:54.261Z,98130.25
2022-10-23T08:00:01.393Z,98161.69
2022-10-23T08:03:08.025Z,98164.84
2022-10-23T08:06:11.437Z,98143.84
2022-10-23T08:09:14.948Z,98148.69
2022-10-23T08:12:19.282Z,98148.25
2022-10-23T08:15:22.589Z,98141.41
2022-10-23T08:18:35.876Z,98142.81
2022-10-23T08:21:39.036Z,98135.56
2022-10-23T08:24:42.379Z,98130.16
2022-10-23T08:27:46.352Z,98135.03
2022-10-23T08:30:50.718Z,98133.88
2022-10-23T08:33:55.982Z,98119.25
2022-10-23T08:36:59.181Z,98117.09
2022-10-23T08:40:02.347Z,98109.78
2022-10-23T08:43:31.243Z,98114.91
2022-10-23T08:46:48.844Z,98111.53
2022-10-23T08:50:37.849Z,98113.72
2022-10-23T08:53:45.513Z,98105.16
2022-10-23T08:56:52.843Z,98088.72
2022-10-23T09:00:00.042Z,98084.38
2022-10-23T09:03:05.903Z,98087.19
2022-10-23T09:06:23.311Z,98071.03
2022-10-23T09:09:43.570Z,98079.66
2022-10-23T09:12:47.108Z,98079.19
2022-10-23T09:15:56.714Z,98090.56
2022-10-23T09:19:00.649Z,98082.22
2022-10-23T09:22:06.891Z,98053.28
2022-10-23T09:25:11.844Z,98088.84
2022-10-23T09:28:20.798Z,98078.94
2022-10-23T09:34:26.598Z,98075.88
2022-10-23T09:37:31.924Z,97827.34
2022-10-23T09:40:41.571Z,97975.25
2022-10-23T09:43:44.719Z,97995.72
2022-10-23T09:49:57.166Z,98035.16
2022-10-23T09:53:00.794Z,98040.03
2022-10-23T09:56:07.864Z,98046.47
2022-10-23T09:59:23.391Z,98049.88
2022-10-23T10:02:30.093Z,98046.13
2022-10-23T10:05:59.737Z,98051.66
2022-10-23T10:09:08.682Z,98051.38
2022-10-23T10:12:22.619Z,98036.97
2022-10-23T10:15:32.345Z,98032.34
2022-10-23T10:18:43.348Z,98027.31
2022-10-23T10:21:53.785Z,98024.31
2022-10-23T10:25:02.911Z,98013.97
2022-10-23T10:28:22.353Z,98016.97
2022-10-23T10:31:36.040Z,98005.72
2022-10-23T10:34:44.309Z,98000.25
2022-10-23T10:38:05.278Z,98002.34
2022-10-23T10:41:39.306Z,98010.19
2022-10-23T10:44:55.893Z,97994.69
2022-10-23T10:48:14.742Z,97986.97
2022-10-23T10:51:48.072Z,97978.41
2022-10-23T10:55:01.980Z,97972.41
2022-10-23T10:58:11.796Z,97962.66
2022-10-23T11:01:26.355Z,97965.63
2022-10-23T11:04:37.927Z,97954.16
2022-10-23T11:07:48.663Z,97954.28
2022-10-23T11:10:58.685Z,97923.56
2022-10-23T11:14:02.986Z,97921.44
2022-10-23T11:17:14.013Z,97923.00
2022-10-23T11:20:29.658Z,97928.22
2022-10-23T11:23:57.642Z,97925.19
2022-10-23T11:27:20.353Z,97935.50
2022-10-23T11:30:34.447Z,97928.56
2022-10-23T11:34:00.372Z,97943.97
2022-10-23T11:37:04.877Z,97938.72
2022-10-23T11:40:22.753Z,97929.28
2022-10-23T11:43:33.463Z,97926.47
2022-10-23T11:46:38.374Z,97924.56
2022-10-23T11:49:41.747Z,97901.94
2022-10-23T11:53:14.710Z,97873.53
2022-10-23T11:56:31.097Z,97900.34
2022-10-23T11:59:41.834Z,97893.41
2022-10-23T12:02:45.639Z,97883.34
2022-10-23T12:05:58.614Z,97876.31
2022-10-23T12:09:06.029Z,97860.88
2022-10-23T12:12:19.040Z,97866.19
2022-10-23T12:15:24.876Z,97868.00
2022-10-23T12:18:28.487Z,97857.25
2022-10-23T12:21:36.229Z,97842.50
2022-10-23T12:24:43.472Z,97861.06
2022-10-23T12:27:53.842Z,97878.34
2022-10-23T12:31:08.568Z,97885.63
2022-10-23T12:34:25.970Z,97873.47
2022-10-23T12:37:59.101Z,97865.81
2022-10-23T12:41:07.152Z,97851.31
2022-10-23T12:44:13.503Z,97845.69
2022-10-23T12:47:19.764Z,97848.44
2022-10-23T12:50:25.230Z,97834.63
2022-10-23T12:53:28.331Z,97830.09
2022-10-23T12:56:38.878Z,97831.91
2022-10-23T12:59:43.874Z,97829.66
2022-10-23T13:02:58.756Z,97814.28
2022-10-23T13:06:04.408Z,97820.47
2022-10-23T13:09:21.109Z,97832.97
2022-10-23T13:12:39.670Z,97790.25
2022-10-23T13:15:44.706Z,97813.09
2022-10-23T13:18:49.674Z,97813.78
2022-10-23T13:21:52.902Z,97817.72
2022-10-23T13:24:56.303Z,97807.13
2022-10-23T13:28:22.841Z,97806.53
2022-10-23T13:31:29.391Z,97807.94
2022-10-23T13:34:33.982Z,97803.66
2022-10-23T13:37:37.678Z,97802.59
2022-10-23T13:40:40.968Z,97801.28
2022-10-23T13:43:45.278Z,97785.81
2022-10-23T13:46:49.295Z,97803.91
2022-10-23T13:49:54.065Z,97808.06
2022-10-23T13:52:58.370Z,97804.63
2022-10-23T13:56:01.517Z,97793.41
2022-10-23T13:59:05.019Z,97799.50
2022-10-23T14:02:20.249Z,97780.69
2022-10-23T14:05:25.182Z,97780.66
2022-10-23T14:08:28.445Z,97797.59
2022-10-23T14:11:32.350Z,97802.34
2022-10-23T14:14:35.648Z,97796.06
2022-10-23T14:17:39.142Z,97769.63
2022-10-23T14:20:43.673Z,97785.31
2022-10-23T14:23:47.097Z,97747.59
2022-10-23T14:26:50.317Z,97762.75
2022-10-23T14:29:53.474Z,97784.25
2022-10-23T14:32:56.598Z,97779.72
2022-10-23T14:36:01.139Z,97770.59
2022-10-23T14:39:04.804Z,97776.03
2022-10-23T14:42:08.467Z,97771.75
2022-10-23T14:45:12.182Z,97764.84
2022-10-23T14:48:15.503Z,97766.06
2022-10-23T14:51:22.809Z,97758.09
2022-10-23T14:54:26.653Z,97761.53
2022-10-23T14:57:29.885Z,97754.13
2022-10-23T15:00:33.088Z,97755.34
2022-10-23T15:03:36.252Z,97758.41
2022-10-23T15:06:41.583Z,97754.59
2022-10-23T15:09:44.785Z,97755.66
2022-10-23T15:12:48.629Z,97748.00
2022-10-23T15:15:51.742Z,97713.84
2022-10-23T15:18:54.975Z,97751.03
2022-10-23T15:21:59.570Z,97754.31
2022-10-23T15:25:02.730Z,97751.22
2022-10-23T15:28:06.082Z,97754.94
2022-10-23T15:34:33.650Z,97626.97
2022-10-23T15:37:41.388Z,97753.25
2022-10-23T15:40:46.013Z,97740.41
2022-10-23T15:46:53.701Z,97691.66
2022-10-23T15:49:58.402Z,97760.47
2022-10-23T15:53:01.936Z,97753.19
2022-10-23T15:56:05.494Z,97711.69
2022-10-23T15:59:08.734Z,97759.25
2022-10-23T16:02:12.712Z,97737.34
2022-10-23T16:05:17.560Z,97754.00
2022-10-23T16:08:20.810Z,97749.03
2022-10-23T16:11:26.203Z,97749.44
2022-10-23T16:14:29.669Z,97737.81
2022-10-23T16:17:33.078Z,97749.09
2022-10-23T16:20:40.862Z,97761.13
2022-10-23T16:23:44.282Z,97753.63
2022-10-23T16:26:52.968Z,97742.84
2022-10-23T16:29:56.564Z,97694.56
2022-10-23T16:32:59.776Z,97735.03
2022-10-23T16:36:09.749Z,97686.59
2022-10-23T16:39:52.796Z,97516.25
2022-10-23T16:43:18.925Z,97712.00
2022-10-23T16:46:34.025Z,97722.66
2022-10-23T16:49:37.338Z,97731.31
2022-10-23T16:52:42.509Z,97730.81
2022-10-23T16:55:46.214Z,97731.66
2022-10-23T16:58:51.755Z,97670.03
2022-10-23T17:01:55.081Z,97736.53
2022-10-23T17:04:58.606Z,97742.72
2022-10-23T17:08:03.237Z,97739.25
2022-10-23T17:11:08.506Z,97731.03
2022-10-23T17:14:15.105Z,97738.72
2022-10-23T17:17:18.392Z,97740.22
2022-10-23T17:20:21.697Z,97727.06
2022-10-23T17:23:26.600Z,97737.72
2022-10-23T17:26:30.563Z,97738.88
2022-10-23T17:29:38.418Z,97700.59
2022-10-23T17:32:42.396Z,97758.34
2022-10-23T17:35:46.365Z,97732.72
2022-10-23T17:38:51.492Z,97732.50
2022-10-23T17:41:55.535Z,97644.53
2022-10-23T17:44:58.995Z,97699.97
2022-10-23T17:48:02.351Z,97766.63
2022-10-23T17:51:08.813Z,97768.78
2022-10-23T17:54:14.606Z,97694.69
2022-10-23T17:57:20.603Z,97746.47
2022-10-23T18:00:24.028Z,97745.09
2022-10-23T18:03:27.386Z,97750.31
2022-10-23T18:06:33.098Z,97687.34
2022-10-23T18:09:37.796Z,97723.81
2022-10-23T18:12:41.135Z,97730.41
2022-10-23T18:15:44.564Z,97743.09
2022-10-23T18:18:49.113Z,97760.00
2022-10-23T18:21:52.505Z,97759.00
2022-10-23T18:24:57.256Z,97756.97
2022-10-23T18:28:02.496Z,97754.91
2022-10-23T18:31:09.166Z,97731.84
2022-10-23T18:34:17.475Z,97733.13
2022-10-23T18:37:20.895Z,97723.53
2022-10-23T18:40:28.584Z,97715.72
2022-10-23T18:43:43.098Z,97711.22
2022-10-23T18:46:48.927Z,97712.59
2022-10-23T18:49:52.557Z,97714.16
2022-10-23T18:52:57.264Z,97733.94
2022-10-23T18:56:01.872Z,97750.72
2022-10-23T18:59:07.825Z,97661.88
2022-10-23T19:02:12.985Z,97771.78
2022-10-23T19:05:16.357Z,97766.44
2022-10-23T19:08:20.191Z,97754.56
2022-10-23T19:11:32.252Z,97762.88
2022-10-23T19:14:47.160Z,97768.44
2022-10-23T19:17:57.637Z,97776.38
2022-10-23T19:21:09.282Z,97766.97
2022-10-23T19:24:37.473Z,97777.84
2022-10-23T19:27:51.217Z,97778.56
2022-10-23T19:31:01.548Z,97780.00
2022-10-23T19:34:10.163Z,97755.75
2022-10-23T19:37:15.941Z,97698.69
2022-10-23T19:44:38.269Z,97762.56
2022-10-23T19:47:42.844Z,97754.97
2022-10-23T19:50:48.630Z,97761.00
2022-10-23T19:56:57.188Z,97765.38
2022-10-23T20:00:04.635Z,97766.22
2022-10-23T20:03:13.628Z,97778.25
2022-10-23T20:06:19.890Z,97792.28
2022-10-23T20:09:23.996Z,97811.34
2022-10-23T20:12:27.662Z,97832.50
2022-10-23T20:15:37.449Z,97852.66
2022-10-23T20:18:40.993Z,97868.22
2022-10-23T20:21:48.289Z,97889.53
2022-10-23T20:24:52.470Z,97893.22
2022-10-23T20:27:56.005Z,97893.44
2022-10-23T20:31:02.373Z,97902.91
2022-10-23T20:34:06.187Z,97903.94
2022-10-23T20:37:09.516Z,97915.25
2022-10-23T20:40:12.791Z,97892.56
2022-10-23T20:43:16.102Z,97890.03
2022-10-23T20:46:21.000Z,97900.88
2022-10-23T20:49:25.159Z,97899.63
2022-10-23T20:52:30.186Z,97902.44
2022-10-23T20:55:35.814Z,97885.97
2022-10-23T20:58:39.150Z,97908.53
2022-10-23T21:01:46.013Z,97876.56
2022-10-23T21:04:50.516Z,97876.03
2022-10-23T21:07:58.314Z,97883.66
2022-10-23T21:11:02.326Z,97875.72
2022-10-23T21:14:05.807Z,97864.94
2022-10-23T21:17:14.184Z,97874.78
2022-10-23T21:20:18.172Z,97865.88
2022-10-23T21:23:21.826Z,97804.41
2022-10-23T21:26:25.420Z,97882.44
2022-10-23T21:29:28.844Z,97891.88
2022-10-23T21:34:24.230Z,97878.69
2022-10-23T21:37:27.341Z,97880.31
2022-10-23T21:40:30.470Z,97873.13
2022-10-23T21:43:33.669Z,97878.28
2022-10-23T21:46:38.054Z,97867.84
2022-10-23T21:49:42.726Z,97888.69
2022-10-23T21:52:46.263Z,97884.09
2022-10-23T21:55:49.904Z,97893.22
2022-10-23T21:58:53.141Z,97890.22
2022-10-23T22:01:56.353Z,97890.97
2022-10-23T22:05:00.909Z,97877.94
2022-10-23T22:08:04.698Z,97874.69
2022-10-23T22:11:07.765Z,97875.31
2022-10-23T22:14:11.537Z,97887.72
2022-10-23T22:17:14.661Z,97881.78
2022-10-23T22:20:19.312Z,97874.25
2022-10-23T22:23:22.398Z,97883.41
2022-10-23T22:26:28.080Z,97861.03
2022-10-23T22:29:31.627Z,97842.56
2022-10-23T22:32:36.368Z,97857.78
2022-10-23T22:35:41.047Z,97864.25
2022-10-23T22:38:44.993Z,97857.75
2022-10-23T22:41:48.494Z,97837.47
2022-10-23T22:44:51.574Z,97832.81
2022-10-23T22:47:54.674Z,97809.97
2022-10-23T22:50:59.193Z,97825.63
2022-10-23T22:54:02.352Z,97839.97
2022-10-23T22:57:05.682Z,97830.25
2022-10-23T23:00:09.815Z,97842.16
2022-10-23T23:03:13.107Z,97836.94
2022-10-23T23:06:18.201Z,97846.03
2022-10-23T23:09:21.331Z,97833.09
2022-10-23T23:12:24.482Z,97829.75
2022-10-23T23:15:27.921Z,97824.00
2022-10-23T23:18:31.491Z,97829.00
2022-10-23T23:21:35.922Z,97835.38
2022-10-23T23:24:39.119Z,97832.13
2022-10-23T23:27:42.224Z,97832.44
2022-10-23T23:33:50.070Z,97829.09
2022-10-23T23:36:54.691Z,97834.59
2022-10-23T23:39:58.366Z,97826.19
2022-10-23T23:43:02.067Z,97832.00
2022-10-23T23:46:05.394Z,97854.50
2022-10-23T23:49:09.017Z,97831.59
2022-10-23T23:52:13.508Z,97840.50
2022-10-23T23:55:16.657Z,97834.59
2022-10-23T23:58:19.844Z,97830.88
